Rand Airport

Airport
ICAO code: 
FAGM
IATA Code: 
QRA
Summary
ICAO Region: 
AFI
Territory: 
Location: 
, Gauteng
Serving: 
Johannesburg
Elevation: 
5483 ft
Coordinates: 
Aerial View: 
26° 14' 33.022" S, 28° 9' 4.208" E
Metar
Observation
FAGM 030500Z 06006KT CAVOK 18/13 Q1024
Station
Rand
Date/Time
2021-12-03 05:00:00
Wind direction
60°
Wind speed
06 kts
Lowest cloud amount
clouds and visibility OK
Temperature
18°C
Dew point
13°C
Humidity
72%
QNH
1024 hPa
Weather condition
n/a

Runways

Designator Length Width Surface Rops
17/35 1493 15 ASP No/No
11/29 1712 15 ASP No/No
Airport map: 
Aerial View: 

SKYbrary Partners:

Safety knowledge contributed by: